createdAt,value
2019-02-02T00:01:31.014Z,48.57
2019-02-02T00:05:34.583Z,43.23
2019-02-02T00:09:38.033Z,43.67
2019-02-02T00:13:41.448Z,72.27
2019-02-02T00:17:44.884Z,53.37
2019-02-02T00:21:48.394Z,53.27
2019-02-02T00:25:51.819Z,49.57
2019-02-02T00:29:55.339Z,51.53
2019-02-02T00:33:58.800Z,49.17
2019-02-02T00:38:02.231Z,54.77
2019-02-02T00:42:05.663Z,46.97
2019-02-02T00:46:09.094Z,45.83
2019-02-02T00:50:14.473Z,50.63
2019-02-02T00:54:17.899Z,47.70
2019-02-02T00:58:21.404Z,47.37
2019-02-02T01:02:24.840Z,41.13
2019-02-02T01:06:28.280Z,42.93
2019-02-02T01:10:39.628Z,46.40
2019-02-02T01:14:43.074Z,46.27
2019-02-02T01:18:46.508Z,44.43
2019-02-02T01:22:50.076Z,45.33
2019-02-02T01:26:53.522Z,43.33
2019-02-02T01:30:57.012Z,39.20
2019-02-02T01:35:00.452Z,43.50
2019-02-02T01:39:07.023Z,45.40
2019-02-02T01:43:10.465Z,45.17
2019-02-02T01:47:13.874Z,40.73
2019-02-02T01:51:17.316Z,43.63
2019-02-02T01:55:21.179Z,43.47
2019-02-02T01:59:24.620Z,44.17
2019-02-02T02:03:28.056Z,43.63
2019-02-02T02:07:31.478Z,41.30
2019-02-02T02:11:34.907Z,36.43
2019-02-02T02:15:38.327Z,42.00
2019-02-02T02:19:41.793Z,43.47
2019-02-02T02:23:45.209Z,49.63
2019-02-02T02:27:49.168Z,42.37
2019-02-02T02:31:52.605Z,45.47
2019-02-02T02:35:56.035Z,45.70
2019-02-02T02:39:59.471Z,45.70
2019-02-02T02:44:03.042Z,53.13
2019-02-02T02:48:06.531Z,62.93
2019-02-02T02:52:09.958Z,56.00
2019-02-02T02:56:13.391Z,51.33
2019-02-02T03:00:24.784Z,50.57
2019-02-02T03:04:28.213Z,48.13
2019-02-02T03:08:31.647Z,47.53
2019-02-02T03:12:35.088Z,46.20
2019-02-02T03:16:39.944Z,40.27
2019-02-02T03:20:43.383Z,43.63
2019-02-02T03:24:46.796Z,43.80
2019-02-02T03:28:53.606Z,43.17
2019-02-02T03:32:55.405Z,46.70
2019-02-02T03:36:58.903Z,43.87
2019-02-02T03:41:02.386Z,44.20
2019-02-02T03:45:08.171Z,45.37
2019-02-02T03:49:11.604Z,46.00
2019-02-02T03:53:15.030Z,44.97
2019-02-02T03:57:18.464Z,44.17
2019-02-02T04:01:21.886Z,41.57
2019-02-02T04:05:30.441Z,44.93
2019-02-02T04:09:34.430Z,41.40
2019-02-02T04:13:38.161Z,40.00
2019-02-02T04:17:42.129Z,42.13
2019-02-02T04:21:46.078Z,40.73
2019-02-02T04:25:50.313Z,41.50
2019-02-02T04:29:54.031Z,47.53
2019-02-02T04:33:57.531Z,43.00
2019-02-02T04:38:00.991Z,42.13
2019-02-02T04:42:04.412Z,43.30
2019-02-02T04:46:07.853Z,43.20
2019-02-02T04:50:14.029Z,47.17
2019-02-02T04:54:17.436Z,47.00
2019-02-02T04:58:20.880Z,46.30
2019-02-02T05:02:24.299Z,45.03
2019-02-02T05:06:27.740Z,45.03
2019-02-02T05:10:31.171Z,43.60
2019-02-02T05:14:34.604Z,52.63
2019-02-02T05:18:38.049Z,43.33
2019-02-02T05:22:41.467Z,42.50
2019-02-02T05:26:44.902Z,42.80
2019-02-02T05:30:48.332Z,44.10
2019-02-02T05:34:51.768Z,46.13
2019-02-02T05:38:55.196Z,45.93
2019-02-02T05:42:58.628Z,45.67
2019-02-02T05:47:02.054Z,43.80
2019-02-02T05:51:05.488Z,45.63
2019-02-02T05:55:11.764Z,46.37
2019-02-02T05:59:15.182Z,44.20
2019-02-02T06:03:18.623Z,48.50
2019-02-02T06:07:22.048Z,44.97
2019-02-02T06:11:25.484Z,47.43
2019-02-02T06:15:29.210Z,50.93
2019-02-02T06:19:32.825Z,50.67
2019-02-02T06:23:36.251Z,48.93
2019-02-02T06:27:41.141Z,48.67
2019-02-02T06:31:44.575Z,45.73
2019-02-02T06:35:48.021Z,47.07
2019-02-02T06:39:51.465Z,46.83
2019-02-02T06:43:54.895Z,49.50
2019-02-02T06:47:59.480Z,47.20
2019-02-02T06:52:02.998Z,44.07
2019-02-02T06:56:06.430Z,46.57
2019-02-02T07:00:30.440Z,52.33
2019-02-02T07:04:33.864Z,45.83
2019-02-02T07:08:37.318Z,44.90
2019-02-02T07:12:40.761Z,49.47
2019-02-02T07:16:44.198Z,45.43
2019-02-02T07:20:47.620Z,45.80
2019-02-02T07:24:51.060Z,43.97
2019-02-02T07:28:54.494Z,47.63
2019-02-02T07:32:57.922Z,51.83
2019-02-02T07:37:01.343Z,46.57
2019-02-02T07:41:04.851Z,49.67
2019-02-02T07:45:11.628Z,51.17
2019-02-02T07:49:15.089Z,50.67
2019-02-02T07:53:18.505Z,48.40
2019-02-02T07:57:21.928Z,54.33
2019-02-02T08:01:25.354Z,51.70
2019-02-02T08:05:28.795Z,58.63
2019-02-02T08:09:32.231Z,47.17
2019-02-02T08:13:35.708Z,49.47
2019-02-02T08:17:39.131Z,53.07
2019-02-02T08:21:42.597Z,54.53
2019-02-02T08:25:46.145Z,58.40
2019-02-02T08:29:49.574Z,56.87
2019-02-02T08:33:52.993Z,57.53
2019-02-02T08:37:56.449Z,59.33
2019-02-02T08:41:59.965Z,54.23
2019-02-02T08:46:03.668Z,51.93
2019-02-02T08:50:13.083Z,54.27
2019-02-02T08:54:16.516Z,50.50
2019-02-02T08:58:19.967Z,51.80
2019-02-02T09:02:23.574Z,54.83
2019-02-02T09:06:38.293Z,51.70
2019-02-02T09:10:32.195Z,63.97
2019-02-02T09:14:35.624Z,59.53
2019-02-02T09:18:39.065Z,56.90
2019-02-02T09:22:42.674Z,53.77
2019-02-02T09:26:46.267Z,57.77
2019-02-02T09:30:49.713Z,54.20
2019-02-02T09:34:53.159Z,62.47
2019-02-02T09:38:56.611Z,59.00
2019-02-02T09:43:00.057Z,57.50
2019-02-02T09:47:03.498Z,58.33
2019-02-02T09:51:07.009Z,52.07
2019-02-02T09:55:16.081Z,56.07
2019-02-02T09:59:19.532Z,50.67
2019-02-02T10:03:22.957Z,48.83
2019-02-02T10:07:26.400Z,53.70
2019-02-02T10:11:29.834Z,50.97
2019-02-02T10:15:33.273Z,55.67
2019-02-02T10:19:36.795Z,52.63
2019-02-02T10:23:40.223Z,51.93
2019-02-02T10:27:43.736Z,54.27
2019-02-02T10:31:47.396Z,51.23
2019-02-02T10:35:50.879Z,50.43
2019-02-02T10:39:54.330Z,49.93
2019-02-02T10:43:57.772Z,49.50
2019-02-02T10:48:01.295Z,51.63
2019-02-02T10:52:04.854Z,49.27
2019-02-02T10:56:08.312Z,47.60
2019-02-02T11:00:20.397Z,51.97
2019-02-02T11:04:23.918Z,52.90
2019-02-02T11:08:27.408Z,55.23
2019-02-02T11:12:30.831Z,50.40
2019-02-02T11:16:34.336Z,50.07
2019-02-02T11:20:38.304Z,51.67
2019-02-02T11:24:41.884Z,50.77
2019-02-02T11:28:45.297Z,54.00
2019-02-02T11:32:49.241Z,54.10
2019-02-02T11:36:52.674Z,52.00
2019-02-02T11:40:56.104Z,47.97
2019-02-02T11:44:59.545Z,51.30
2019-02-02T11:49:02.993Z,46.90
2019-02-02T11:53:06.407Z,52.90
2019-02-02T11:57:09.844Z,50.07
2019-02-02T12:01:13.282Z,50.40
2019-02-02T12:05:17.057Z,49.97
2019-02-02T12:09:20.480Z,50.53
2019-02-02T12:13:23.912Z,52.77
2019-02-02T12:17:27.352Z,47.87
2019-02-02T12:21:30.791Z,51.30
2019-02-02T12:25:34.254Z,50.00
2019-02-02T12:29:37.679Z,52.93
2019-02-02T12:33:41.107Z,52.33
2019-02-02T12:37:44.548Z,51.53
2019-02-02T12:41:47.984Z,56.00
2019-02-02T12:45:51.494Z,50.87
2019-02-02T12:49:54.928Z,54.03
2019-02-02T12:53:58.420Z,47.47
2019-02-02T12:58:01.865Z,48.13
2019-02-02T13:02:05.976Z,55.80
2019-02-02T13:06:09.417Z,61.30
2019-02-02T13:10:16.140Z,111.80
2019-02-02T13:14:19.575Z,43.50
2019-02-02T13:18:23.012Z,37.60
2019-02-02T13:22:26.442Z,37.30
2019-02-02T13:26:29.881Z,39.00
2019-02-02T13:30:35.456Z,41.63
2019-02-02T13:34:38.887Z,40.17
2019-02-02T13:38:42.320Z,41.30
2019-02-02T13:42:45.764Z,37.80
2019-02-02T13:46:49.197Z,37.93
2019-02-02T13:50:52.636Z,35.10
2019-02-02T13:54:56.089Z,37.90
2019-02-02T13:58:59.522Z,40.00
2019-02-02T14:03:03.880Z,40.13
2019-02-02T14:07:17.836Z,37.70
2019-02-02T14:11:14.287Z,39.40
2019-02-02T14:15:20.810Z,41.73
2019-02-02T14:19:24.239Z,36.77
2019-02-02T14:23:27.676Z,37.60
2019-02-02T14:27:31.104Z,38.40
2019-02-02T14:31:34.536Z,39.43
2019-02-02T14:35:37.977Z,38.53
2019-02-02T14:39:41.414Z,35.27
2019-02-02T14:43:44.844Z,37.37
2019-02-02T14:47:48.260Z,34.80
2019-02-02T14:51:51.687Z,34.10
2019-02-02T14:55:55.194Z,36.33
2019-02-02T14:59:58.672Z,34.43
2019-02-02T15:04:02.125Z,34.80
2019-02-02T15:08:05.635Z,36.20
2019-02-02T15:12:09.073Z,36.10
2019-02-02T15:16:12.492Z,33.03
2019-02-02T15:20:27.068Z,35.50
2019-02-02T15:24:30.548Z,32.87
2019-02-02T15:28:33.992Z,37.57
2019-02-02T15:32:37.421Z,35.60
2019-02-02T15:36:40.862Z,36.00
2019-02-02T15:40:44.289Z,38.17
2019-02-02T15:44:47.711Z,39.17
2019-02-02T15:48:51.238Z,37.03
2019-02-02T15:52:54.681Z,35.53
2019-02-02T15:56:58.123Z,38.23
2019-02-02T16:01:01.575Z,37.80
2019-02-02T16:05:08.067Z,40.03
2019-02-02T16:09:11.509Z,39.87
2019-02-02T16:13:14.935Z,36.13
2019-02-02T16:17:18.852Z,38.23
2019-02-02T16:21:22.275Z,34.50
2019-02-02T16:25:25.713Z,39.77
2019-02-02T16:29:29.155Z,39.60
2019-02-02T16:33:32.600Z,39.57
2019-02-02T16:37:36.390Z,36.80
2019-02-02T16:41:39.918Z,38.13
2019-02-02T16:45:43.355Z,37.80
2019-02-02T16:49:46.790Z,36.83
2019-02-02T16:53:50.227Z,39.13
2019-02-02T16:57:53.674Z,38.80
2019-02-02T17:02:16.443Z,40.00
2019-02-02T17:06:19.887Z,38.30
2019-02-02T17:10:31.268Z,38.70
2019-02-02T17:14:34.701Z,38.43
2019-02-02T17:18:38.132Z,37.03
2019-02-02T17:22:41.562Z,42.37
2019-02-02T17:26:44.997Z,40.70
2019-02-02T17:30:48.453Z,44.10
2019-02-02T17:34:51.888Z,40.30
2019-02-02T17:38:55.332Z,36.40
2019-02-02T17:42:58.837Z,44.37
2019-02-02T17:47:02.267Z,47.13
2019-02-02T17:51:05.766Z,45.83
2019-02-02T17:55:10.431Z,46.50
2019-02-02T17:59:14.016Z,43.70
2019-02-02T18:03:17.752Z,48.20
2019-02-02T18:07:21.178Z,47.93
2019-02-02T18:11:24.624Z,44.83
2019-02-02T18:15:28.058Z,50.77
2019-02-02T18:19:31.492Z,47.17
2019-02-02T18:23:34.940Z,51.13
2019-02-02T18:27:38.476Z,59.93
2019-02-02T18:31:41.976Z,55.33
2019-02-02T18:35:45.522Z,58.53
2019-02-02T18:39:49.023Z,60.87
2019-02-02T18:43:52.459Z,54.77
2019-02-02T18:47:56.011Z,55.43
2019-02-02T18:51:59.504Z,60.23
2019-02-02T18:56:02.934Z,59.40
2019-02-02T19:00:15.305Z,62.53
2019-02-02T19:04:18.732Z,60.47
2019-02-02T19:08:22.157Z,53.80
2019-02-02T19:12:25.636Z,56.97
2019-02-02T19:16:29.068Z,54.30
2019-02-02T19:20:32.488Z,56.13
2019-02-02T19:24:35.976Z,55.23
2019-02-02T19:28:40.292Z,54.27
2019-02-02T19:32:43.949Z,57.33
2019-02-02T19:36:47.384Z,69.30
2019-02-02T19:40:50.820Z,63.20
2019-02-02T19:44:54.384Z,58.93
2019-02-02T19:48:57.821Z,56.57
2019-02-02T19:53:01.355Z,60.47
2019-02-02T19:57:04.887Z,57.80
2019-02-02T20:01:08.320Z,58.67
2019-02-02T20:05:11.871Z,56.03
2019-02-02T20:09:15.307Z,53.53
2019-02-02T20:13:19.544Z,50.17
2019-02-02T20:17:23.355Z,47.07
2019-02-02T20:21:26.787Z,48.17
2019-02-02T20:25:30.266Z,46.77
2019-02-02T20:29:33.876Z,44.73
2019-02-02T20:33:37.320Z,45.07
2019-02-02T20:37:40.832Z,50.27
2019-02-02T20:41:44.243Z,50.83
2019-02-02T20:45:47.684Z,50.53
2019-02-02T20:49:51.108Z,47.50
2019-02-02T20:53:54.549Z,47.37
2019-02-02T20:57:57.980Z,49.80
2019-02-02T21:02:02.293Z,53.27
2019-02-02T21:06:05.723Z,54.47
2019-02-02T21:10:17.835Z,56.67
2019-02-02T21:14:21.266Z,52.80
2019-02-02T21:18:24.778Z,50.37
2019-02-02T21:22:28.196Z,51.37
2019-02-02T21:26:31.633Z,53.80
2019-02-02T21:30:36.060Z,49.47
2019-02-02T21:34:39.868Z,51.40
2019-02-02T21:38:43.312Z,52.60
2019-02-02T21:42:46.728Z,55.73
2019-02-02T21:46:50.160Z,45.30
2019-02-02T21:50:53.603Z,47.90
2019-02-02T21:54:57.034Z,49.13
2019-02-02T21:59:00.465Z,47.53
2019-02-02T22:03:04.517Z,54.67
2019-02-02T22:07:08.131Z,57.37
2019-02-02T22:11:11.572Z,55.20
2019-02-02T22:15:18.075Z,57.13
2019-02-02T22:19:21.511Z,62.80
2019-02-02T22:23:24.929Z,59.03
2019-02-02T22:27:28.356Z,56.47
2019-02-02T22:31:32.464Z,60.00
2019-02-02T22:35:35.911Z,58.67
2019-02-02T22:39:39.344Z,55.37
2019-02-02T22:43:42.776Z,52.60
2019-02-02T22:47:46.285Z,54.63
2019-02-02T22:51:49.723Z,53.07
2019-02-02T22:55:53.179Z,58.87
2019-02-02T22:59:56.609Z,56.60
2019-02-02T23:04:08.835Z,52.33
2019-02-02T23:08:33.173Z,57.47
2019-02-02T23:12:48.312Z,60.53
2019-02-02T23:16:51.743Z,64.43
2019-02-02T23:20:55.191Z,63.87
2019-02-02T23:24:59.200Z,71.23
2019-02-02T23:29:02.627Z,72.53
2019-02-02T23:33:06.064Z,74.60
2019-02-02T23:37:09.523Z,70.43
2019-02-02T23:41:13.010Z,68.70
2019-02-02T23:45:16.438Z,66.50
2019-02-02T23:49:19.874Z,66.20
2019-02-02T23:53:23.311Z,69.37
2019-02-02T23:57:26.739Z,91.10
